Terminal Aerodrome Forecast
Issued by NWS

Home | Current Version | Previous Version | Text Only | Print | Product List | Glossary On
Versions: 1 2 3 4 5 6 7 8 9 10 11 12 13 14 15 16 17 18 19 20 21 22
000
FTUS43 KMPX 280109 AAA
TAFRNH
TAF AMD
KRNH 280109Z 2801/2824 03005KT P6SM SCT009 BKN025
      TEMPO 2801/2803 SCT025
     FM280300 VRB03KT 4SM BR SCT007 OVC015
     FM281100 03002KT 4SM -SHRA BR BKN007 OVC015
     FM281500 15005KT 5SM -SHRA BR OVC020=

USA.gov is the U.S. government's official web portal to all federal, state and local government web resources and services.